createdAt,value
2022-12-01T00:00:21.214Z,99582.95
2022-12-01T00:02:54.023Z,99585.52
2022-12-01T00:05:07.482Z,99584.95
2022-12-01T00:07:21.056Z,99585.85
2022-12-01T00:09:50.823Z,99589.49
2022-12-01T00:12:03.668Z,99599.35
2022-12-01T00:14:17.383Z,99607.95
2022-12-01T00:16:30.286Z,99617.63
2022-12-01T00:18:46.610Z,99619.63
2022-12-01T00:26:43.321Z,99619.02
2022-12-01T00:28:58.030Z,99620.71
2022-12-01T00:31:14.368Z,99622.83
2022-12-01T00:33:27.543Z,99627.67
2022-12-01T00:35:40.928Z,99627.44
2022-12-01T00:37:53.796Z,99628.91
2022-12-01T00:40:08.295Z,99632.71
2022-12-01T00:42:24.431Z,99638.89
2022-12-01T00:44:37.277Z,99634.90
2022-12-01T00:46:50.080Z,99630.27
2022-12-01T00:49:02.834Z,99629.58
2022-12-01T00:51:16.844Z,99629.13
2022-12-01T00:53:30.419Z,99625.48
2022-12-01T00:55:43.224Z,99624.19
2022-12-01T00:57:56.085Z,99626.19
2022-12-01T01:00:10.628Z,99629.91
2022-12-01T01:02:23.485Z,99626.89
2022-12-01T01:04:38.743Z,99624.00
2022-12-01T01:06:52.399Z,99625.27
2022-12-01T01:09:05.618Z,99622.21
2022-12-01T01:11:19.062Z,99624.44
2022-12-01T01:13:33.563Z,99623.98
2022-12-01T01:15:46.965Z,99627.65
2022-12-01T01:17:59.778Z,99618.92
2022-12-01T01:20:15.737Z,99604.48
2022-12-01T01:22:28.559Z,99600.77
2022-12-01T01:24:42.161Z,99598.27
2022-12-01T01:26:56.511Z,99597.06
2022-12-01T01:29:10.455Z,99595.08
2022-12-01T01:31:29.354Z,99593.48
2022-12-01T01:33:42.337Z,99608.29
2022-12-01T01:35:55.142Z,99607.38
2022-12-01T01:38:08.709Z,99611.71
2022-12-01T01:40:21.826Z,99615.70
2022-12-01T01:42:34.916Z,99614.76
2022-12-01T01:44:58.543Z,99612.23
2022-12-01T01:47:11.421Z,99611.27
2022-12-01T01:49:24.394Z,99610.83
2022-12-01T01:51:41.938Z,99611.11
2022-12-01T01:53:57.049Z,99609.52
2022-12-01T01:56:10.971Z,99602.63
2022-12-01T01:58:23.875Z,99599.33
2022-12-01T02:00:37.124Z,99598.27
2022-12-01T02:02:52.197Z,99602.05
2022-12-01T02:05:12.582Z,99598.71
2022-12-01T02:07:26.359Z,99599.52
2022-12-01T02:09:39.997Z,99599.95
2022-12-01T02:12:24.523Z,99605.00
2022-12-01T02:15:06.792Z,99603.67
2022-12-01T02:17:29.579Z,99602.06
2022-12-01T02:20:03.743Z,99602.14
2022-12-01T02:22:26.230Z,99608.45
2022-12-01T02:24:53.871Z,99608.70
2022-12-01T02:27:11.343Z,99606.06
2022-12-01T02:30:02.046Z,99614.08
2022-12-01T02:32:24.512Z,99611.33
2022-12-01T02:34:44.505Z,99606.09
2022-12-01T02:37:01.523Z,99606.06
2022-12-01T02:39:20.751Z,99605.61
2022-12-01T02:41:40.983Z,99611.44
2022-12-01T02:44:01.872Z,99610.56
2022-12-01T02:46:19.866Z,99615.05
2022-12-01T02:48:36.133Z,99610.95
2022-12-01T02:50:49.952Z,99607.46
2022-12-01T02:53:04.429Z,99610.27
2022-12-01T02:55:18.602Z,99611.07
2022-12-01T02:57:33.104Z,99608.71
2022-12-01T02:59:49.180Z,99607.73
2022-12-01T03:02:14.247Z,99607.50
2022-12-01T03:04:43.874Z,99608.03
2022-12-01T03:07:07.783Z,99608.58
2022-12-01T03:09:37.256Z,99609.98
2022-12-01T03:12:00.982Z,99606.90
2022-12-01T03:14:27.872Z,99609.16
2022-12-01T03:16:50.625Z,99608.00
2022-12-01T03:19:09.850Z,99606.29
2022-12-01T03:21:30.356Z,99606.19
2022-12-01T03:23:46.184Z,99608.56
2022-12-01T03:26:02.462Z,99601.67
2022-12-01T03:28:22.466Z,99604.05
2022-12-01T03:30:38.737Z,99606.69
2022-12-01T03:32:54.646Z,99613.02
2022-12-01T03:35:12.047Z,99613.81
2022-12-01T03:37:32.406Z,99608.92
2022-12-01T03:39:49.738Z,99609.38
2022-12-01T03:42:10.968Z,99610.84
2022-12-01T03:44:28.892Z,99612.20
2022-12-01T03:46:48.551Z,99617.40
2022-12-01T03:49:01.604Z,99618.63
2022-12-01T03:51:20.871Z,99616.94
2022-12-01T03:53:40.050Z,99612.44
2022-12-01T03:55:59.419Z,99614.24
2022-12-01T03:58:15.834Z,99608.29
2022-12-01T04:00:29.644Z,99609.23
2022-12-01T04:02:42.740Z,99613.57
2022-12-01T04:04:55.485Z,99613.55
2022-12-01T04:07:08.303Z,99612.14
2022-12-01T04:09:21.014Z,99612.69
2022-12-01T04:11:50.325Z,99615.96
2022-12-01T04:14:04.064Z,99617.28
2022-12-01T04:16:17.152Z,99619.98
2022-12-01T04:18:30.393Z,99620.50
2022-12-01T04:20:44.323Z,99628.15
2022-12-01T04:22:56.909Z,99626.73
2022-12-01T04:25:12.606Z,99620.75
2022-12-01T04:27:26.013Z,99614.11
2022-12-01T04:29:39.003Z,99612.37
2022-12-01T04:31:51.844Z,99610.23
2022-12-01T04:34:05.212Z,99614.95
2022-12-01T04:36:18.205Z,99620.66
2022-12-01T04:38:32.052Z,99622.05
2022-12-01T04:40:46.284Z,99625.55
2022-12-01T04:42:59.173Z,99631.23
2022-12-01T04:45:13.878Z,99633.11
2022-12-01T04:47:26.811Z,99630.46
2022-12-01T04:49:40.117Z,99630.96
2022-12-01T04:51:53.558Z,99633.18
2022-12-01T04:54:07.267Z,99626.48
2022-12-01T04:56:20.214Z,99625.23
2022-12-01T04:58:33.615Z,99622.55
2022-12-01T05:00:46.633Z,99621.13
2022-12-01T05:02:59.599Z,99620.05
2022-12-01T05:05:13.001Z,99627.89
2022-12-01T05:07:26.047Z,99627.81
2022-12-01T05:09:38.917Z,99631.34
2022-12-01T05:11:52.132Z,99630.73
2022-12-01T05:14:05.571Z,99632.98
2022-12-01T05:16:20.211Z,99633.15
2022-12-01T05:18:33.244Z,99635.58
2022-12-01T05:21:01.434Z,99644.02
2022-12-01T05:23:16.985Z,99638.94
2022-12-01T05:25:30.070Z,99636.40
2022-12-01T05:27:43.156Z,99636.59
2022-12-01T05:29:56.119Z,99634.25
2022-12-01T05:32:09.292Z,99630.96
2022-12-01T05:34:22.525Z,99625.10
2022-12-01T05:36:35.759Z,99627.47
2022-12-01T05:38:48.534Z,99627.20
2022-12-01T05:41:01.940Z,99629.11
2022-12-01T05:43:14.915Z,99628.73
2022-12-01T05:45:29.447Z,99626.07
2022-12-01T05:47:42.799Z,99625.28
2022-12-01T05:49:59.534Z,99619.36
2022-12-01T05:52:15.199Z,99620.20
2022-12-01T05:54:27.894Z,99621.28
2022-12-01T05:56:40.806Z,99624.61
2022-12-01T05:58:53.640Z,99625.26
2022-12-01T06:01:06.941Z,99632.15
2022-12-01T06:03:20.026Z,99631.52
2022-12-01T06:05:34.049Z,99628.05
2022-12-01T06:07:48.444Z,99638.30
2022-12-01T06:10:01.171Z,99643.15
2022-12-01T06:12:14.107Z,99636.92
2022-12-01T06:14:28.103Z,99643.70
2022-12-01T06:16:41.369Z,99640.88
2022-12-01T06:18:54.888Z,99640.16
2022-12-01T06:21:08.736Z,99637.73
2022-12-01T06:23:25.212Z,99640.94
2022-12-01T06:25:40.467Z,99646.70
2022-12-01T06:27:53.184Z,99646.02
2022-12-01T06:30:06.549Z,99645.05
2022-12-01T06:32:19.565Z,99649.27
2022-12-01T06:34:32.637Z,99652.15
2022-12-01T06:36:45.701Z,99645.84
2022-12-01T06:38:58.577Z,99642.65
2022-12-01T06:41:11.725Z,99639.12
2022-12-01T06:43:24.458Z,99639.48
2022-12-01T06:45:37.562Z,99634.33
2022-12-01T06:47:51.829Z,99630.05
2022-12-01T06:50:06.427Z,99629.02
2022-12-01T06:52:19.478Z,99629.58
2022-12-01T06:54:32.445Z,99629.04
2022-12-01T06:56:45.139Z,99632.88
2022-12-01T06:58:58.395Z,99628.91
2022-12-01T07:01:16.596Z,99629.22
2022-12-01T07:03:29.371Z,99634.20
2022-12-01T07:05:42.473Z,99638.42
2022-12-01T07:07:59.333Z,99636.88
2022-12-01T07:10:15.514Z,99639.81
2022-12-01T07:12:29.520Z,99636.59
2022-12-01T07:14:43.606Z,99632.60
2022-12-01T07:16:56.428Z,99629.63
2022-12-01T07:19:09.122Z,99635.00
2022-12-01T07:21:23.064Z,99638.31
2022-12-01T07:23:36.524Z,99636.60
2022-12-01T07:25:49.306Z,99640.56
2022-12-01T07:28:02.646Z,99635.52
2022-12-01T07:30:16.719Z,99639.39
2022-12-01T07:32:29.666Z,99637.33
2022-12-01T07:34:42.489Z,99635.05
2022-12-01T07:36:55.405Z,99639.41
2022-12-01T07:39:10.397Z,99641.71
2022-12-01T07:41:24.323Z,99643.95
2022-12-01T07:43:38.536Z,99643.80
2022-12-01T07:45:54.581Z,99649.23
2022-12-01T07:48:07.816Z,99645.99
2022-12-01T07:50:20.679Z,99649.00
2022-12-01T07:52:34.114Z,99647.85
2022-12-01T07:54:46.936Z,99646.31
2022-12-01T07:56:59.951Z,99645.79
2022-12-01T07:59:13.199Z,99646.92
2022-12-01T08:01:26.939Z,99642.47
2022-12-01T08:03:40.278Z,99639.25
2022-12-01T08:06:02.137Z,99637.14
2022-12-01T08:08:15.188Z,99640.26
2022-12-01T08:10:30.500Z,99640.55
2022-12-01T08:12:43.325Z,99645.89
2022-12-01T08:14:56.238Z,99649.25
2022-12-01T08:17:09.025Z,99652.81
2022-12-01T08:19:21.896Z,99653.20
2022-12-01T08:21:34.739Z,99655.16
2022-12-01T08:23:48.608Z,99659.45
2022-12-01T08:26:03.208Z,99660.63
2022-12-01T08:28:16.068Z,99662.83
2022-12-01T08:30:30.503Z,99665.33
2022-12-01T08:32:43.287Z,99661.55
2022-12-01T08:34:56.135Z,99673.24
2022-12-01T08:37:08.874Z,99678.58
2022-12-01T08:39:21.519Z,99682.05
2022-12-01T08:41:34.719Z,99687.92
2022-12-01T08:44:02.687Z,99693.23
2022-12-01T08:46:17.127Z,99701.50
2022-12-01T08:48:31.162Z,99706.65
2022-12-01T08:50:43.931Z,99706.11
2022-12-01T08:52:56.633Z,99703.54
2022-12-01T08:55:11.708Z,99696.55
2022-12-01T08:57:24.701Z,99703.73
2022-12-01T08:59:37.447Z,99707.10
2022-12-01T09:01:56.310Z,99703.28
2022-12-01T09:04:09.611Z,99707.41
2022-12-01T09:06:26.115Z,99701.20
2022-12-01T09:08:39.453Z,99700.42
2022-12-01T09:10:58.676Z,99700.05
2022-12-01T09:13:11.439Z,99701.47
2022-12-01T09:15:24.280Z,99702.25
2022-12-01T09:17:37.223Z,99706.25
2022-12-01T09:19:50.392Z,99715.91
2022-12-01T09:22:03.672Z,99701.66
2022-12-01T09:24:18.636Z,99703.84
2022-12-01T09:26:32.322Z,99706.16
2022-12-01T09:28:45.247Z,99700.88
2022-12-01T09:30:58.157Z,99703.23
2022-12-01T09:33:10.914Z,99704.41
2022-12-01T09:35:23.771Z,99705.76
2022-12-01T09:37:36.659Z,99712.78
2022-12-01T09:39:50.041Z,99719.73
2022-12-01T09:42:09.000Z,99724.55
2022-12-01T09:44:31.844Z,99729.02
2022-12-01T09:46:50.126Z,99726.25
2022-12-01T09:49:05.975Z,99730.61
2022-12-01T09:51:21.836Z,99727.89
2022-12-01T09:53:35.060Z,99733.39
2022-12-01T09:55:48.127Z,99727.81
2022-12-01T09:58:02.509Z,99726.50
2022-12-01T10:00:20.212Z,99722.86
2022-12-01T10:02:38.676Z,99730.23
2022-12-01T10:04:53.892Z,99736.15
2022-12-01T10:07:09.838Z,99740.11
2022-12-01T10:09:31.288Z,99745.52
2022-12-01T10:11:47.666Z,99755.06
2022-12-01T10:14:01.505Z,99758.17
2022-12-01T10:16:16.625Z,99759.77
2022-12-01T10:18:39.546Z,99763.90
2022-12-01T10:21:00.420Z,99767.85
2022-12-01T10:23:45.333Z,99770.04
2022-12-01T10:26:02.539Z,99772.92
2022-12-01T10:28:48.606Z,99776.21
2022-12-01T10:31:13.223Z,99778.13
2022-12-01T10:33:29.839Z,99791.74
2022-12-01T10:35:42.866Z,99792.73
2022-12-01T10:37:59.838Z,99785.76
2022-12-01T10:40:19.512Z,99789.52
2022-12-01T10:42:41.662Z,99792.02
2022-12-01T10:44:56.922Z,99795.02
2022-12-01T10:47:19.500Z,99795.77
2022-12-01T10:49:43.151Z,99795.89
2022-12-01T10:52:02.293Z,99802.42
2022-12-01T10:54:16.193Z,99795.30
2022-12-01T10:56:29.331Z,99800.02
2022-12-01T10:58:51.800Z,99797.52
2022-12-01T11:01:07.134Z,99800.84
2022-12-01T11:03:32.593Z,99798.89
2022-12-01T11:05:46.916Z,99798.46
2022-12-01T11:08:00.086Z,99795.42
2022-12-01T11:10:22.714Z,99792.64
2022-12-01T11:12:36.136Z,99796.20
2022-12-01T11:14:52.005Z,99793.81
2022-12-01T11:17:28.769Z,99792.56
2022-12-01T11:19:41.583Z,99789.92
2022-12-01T11:21:56.718Z,99787.58
2022-12-01T11:24:30.279Z,99791.69
2022-12-01T11:26:43.085Z,99791.33
2022-12-01T11:29:03.531Z,99795.21
2022-12-01T11:31:19.863Z,99795.72
2022-12-01T11:33:36.916Z,99796.46
2022-12-01T11:35:53.142Z,99794.75
2022-12-01T11:40:48.977Z,99798.65
2022-12-01T11:43:04.173Z,99799.53
2022-12-01T11:45:34.302Z,99800.27
2022-12-01T11:48:05.883Z,99800.29
2022-12-01T11:50:33.524Z,99805.38
2022-12-01T11:52:52.217Z,99805.46
2022-12-01T11:55:26.378Z,99807.00
2022-12-01T11:57:39.300Z,99807.14
2022-12-01T11:59:53.049Z,99809.42
2022-12-01T12:02:24.604Z,99811.00
2022-12-01T12:04:53.194Z,99809.16
2022-12-01T12:07:13.065Z,99810.27
2022-12-01T12:12:29.834Z,99819.30
2022-12-01T12:15:02.759Z,99816.39
2022-12-01T12:17:40.131Z,99821.93
2022-12-01T12:20:12.686Z,99826.19
2022-12-01T12:22:36.839Z,99833.54
2022-12-01T12:25:02.004Z,99836.70
2022-12-01T12:27:22.723Z,99844.96
2022-12-01T12:29:49.119Z,99841.23
2022-12-01T12:32:16.615Z,99843.76
2022-12-01T12:34:40.224Z,99845.71
2022-12-01T12:37:03.933Z,99843.67
2022-12-01T12:39:32.620Z,99849.88
2022-12-01T12:41:49.729Z,99848.34
2022-12-01T12:44:14.554Z,99849.80
2022-12-01T12:46:39.001Z,99856.92
2022-12-01T12:49:19.782Z,99861.65
2022-12-01T12:51:38.381Z,99863.41
2022-12-01T12:53:59.089Z,99867.02
2022-12-01T12:56:16.870Z,99868.86
2022-12-01T12:58:35.966Z,99867.99
2022-12-01T13:00:52.764Z,99869.30
2022-12-01T13:03:16.646Z,99867.41
2022-12-01T13:05:35.119Z,99869.42
2022-12-01T13:07:56.030Z,99868.50
2022-12-01T13:10:15.547Z,99869.50
2022-12-01T13:12:38.986Z,99872.38
2022-12-01T13:15:01.066Z,99877.53
2022-12-01T13:17:21.709Z,99877.19
2022-12-01T13:19:38.160Z,99880.18
2022-12-01T13:21:55.309Z,99879.65
2022-12-01T13:24:16.232Z,99879.18
2022-12-01T13:26:31.507Z,99883.23
2022-12-01T13:28:49.212Z,99881.87
2022-12-01T13:31:10.307Z,99885.27
2022-12-01T13:33:25.696Z,99880.41
2022-12-01T13:35:40.714Z,99885.53
2022-12-01T13:37:54.025Z,99882.16
2022-12-01T13:40:23.541Z,99887.66
2022-12-01T13:42:38.348Z,99890.90
2022-12-01T13:44:54.850Z,99895.48
2022-12-01T13:47:29.496Z,99897.68
2022-12-01T13:49:47.157Z,99901.27
2022-12-01T13:52:29.554Z,99902.87
2022-12-01T13:54:42.987Z,99904.21
2022-12-01T13:57:09.128Z,99911.64
2022-12-01T14:00:05.480Z,99921.48
2022-12-01T14:02:38.020Z,99924.67
2022-12-01T14:04:52.305Z,99925.69
2022-12-01T14:07:44.460Z,99929.49
2022-12-01T14:09:59.964Z,99931.28
2022-12-01T14:12:23.071Z,99935.02
2022-12-01T14:14:41.841Z,99937.60
2022-12-01T14:16:56.946Z,99938.25
2022-12-01T14:19:09.874Z,99942.89
2022-12-01T14:21:42.955Z,99948.31
2022-12-01T14:24:09.688Z,99949.09
2022-12-01T14:26:25.550Z,99948.86
2022-12-01T14:29:16.915Z,99954.21
2022-12-01T14:31:51.415Z,99959.91
2022-12-01T14:34:12.134Z,99963.40
2022-12-01T14:36:45.012Z,99967.09
2022-12-01T14:39:04.265Z,99966.72
2022-12-01T14:41:23.631Z,99969.44
2022-12-01T14:43:52.745Z,99967.40
2022-12-01T14:46:11.001Z,99967.32
2022-12-01T14:48:28.744Z,99966.77
2022-12-01T14:50:47.353Z,99966.20
2022-12-01T14:53:07.213Z,99965.95
2022-12-01T14:55:24.148Z,99976.02
2022-12-01T14:57:41.486Z,99974.29
2022-12-01T15:00:08.206Z,99975.66
2022-12-01T15:02:21.275Z,99975.67
2022-12-01T15:04:35.794Z,99979.35
2022-12-01T15:06:49.542Z,99989.89
2022-12-01T15:09:35.590Z,99994.80
2022-12-01T15:12:01.216Z,100000.45
2022-12-01T15:14:36.866Z,100002.61
2022-12-01T15:16:50.239Z,100007.33
2022-12-01T15:19:03.419Z,100015.13
2022-12-01T15:21:20.742Z,100021.44
2022-12-01T15:23:33.355Z,100019.80
2022-12-01T15:25:48.605Z,100019.16
2022-12-01T15:28:18.635Z,100013.06
2022-12-01T15:30:31.692Z,100009.98
2022-12-01T15:32:46.853Z,100010.14
2022-12-01T15:35:06.314Z,100002.50
2022-12-01T15:37:22.535Z,100002.47
2022-12-01T15:39:40.648Z,100006.71
2022-12-01T15:41:55.296Z,100005.65
2022-12-01T15:44:09.430Z,100007.59
2022-12-01T15:46:29.424Z,100009.26
2022-12-01T15:48:45.222Z,100012.11
2022-12-01T15:51:08.608Z,100014.27
2022-12-01T15:53:30.485Z,100018.38
2022-12-01T15:55:44.353Z,100019.50
2022-12-01T15:57:57.683Z,100024.74
2022-12-01T16:00:21.943Z,100031.26
2022-12-01T16:02:36.650Z,100033.94
2022-12-01T16:04:50.920Z,100037.54
2022-12-01T16:07:06.443Z,100040.94
2022-12-01T16:09:29.592Z,100043.36
2022-12-01T16:11:42.838Z,100044.27
2022-12-01T16:14:04.226Z,100046.45
2022-12-01T16:16:43.098Z,100050.17
2022-12-01T16:19:00.609Z,100054.88
2022-12-01T16:21:16.024Z,100063.15
2022-12-01T16:23:30.186Z,100072.44
2022-12-01T16:25:45.295Z,100076.80
2022-12-01T16:28:02.637Z,100081.39
2022-12-01T16:30:27.345Z,100087.05
2022-12-01T16:32:43.417Z,100095.67
2022-12-01T16:34:58.365Z,100098.86
2022-12-01T16:37:12.287Z,100094.71
2022-12-01T16:39:25.722Z,100089.73
2022-12-01T16:41:40.180Z,100094.85
2022-12-01T16:44:20.320Z,100098.86
2022-12-01T16:46:25.980Z,100098.52
2022-12-01T16:48:38.860Z,100101.54
2022-12-01T16:50:53.303Z,100106.60
2022-12-01T16:53:06.013Z,100117.77
2022-12-01T16:55:41.556Z,100123.66
2022-12-01T16:57:54.393Z,100131.98
2022-12-01T17:00:08.232Z,100139.86
2022-12-01T17:02:21.323Z,100137.55
2022-12-01T17:04:34.178Z,100136.12
2022-12-01T17:06:47.059Z,100142.48
2022-12-01T17:09:00.099Z,100145.11
2022-12-01T17:11:13.819Z,100145.71
2022-12-01T17:13:27.351Z,100153.38
2022-12-01T17:15:43.243Z,100151.34
2022-12-01T17:17:56.386Z,100157.11
2022-12-01T17:20:11.543Z,100158.73
2022-12-01T17:22:24.766Z,100162.16
2022-12-01T17:24:38.014Z,100162.78
2022-12-01T17:26:50.964Z,100160.21
2022-12-01T17:29:04.061Z,100171.02
2022-12-01T17:31:17.648Z,100172.81
2022-12-01T17:33:30.485Z,100171.17
2022-12-01T17:35:43.658Z,100172.73
2022-12-01T17:37:56.640Z,100175.36
2022-12-01T17:40:11.052Z,100174.88
2022-12-01T17:42:25.287Z,100187.60
2022-12-01T17:44:40.101Z,100186.92
2022-12-01T17:46:53.068Z,100189.33
2022-12-01T17:49:10.407Z,100193.59
2022-12-01T17:51:23.780Z,100194.55
2022-12-01T17:53:37.081Z,100194.32
2022-12-01T17:55:50.053Z,100192.56
2022-12-01T17:58:04.457Z,100196.84
2022-12-01T18:00:20.822Z,100201.48
2022-12-01T18:02:33.665Z,100203.87
2022-12-01T18:04:46.990Z,100201.95
2022-12-01T18:07:00.282Z,100207.41
2022-12-01T18:09:13.444Z,100210.45
2022-12-01T18:11:27.189Z,100211.75
2022-12-01T18:13:41.777Z,100209.59
2022-12-01T18:15:55.004Z,100214.62
2022-12-01T18:18:07.954Z,100223.03
2022-12-01T18:20:21.074Z,100224.62
2022-12-01T18:22:35.189Z,100229.19
2022-12-01T18:24:48.577Z,100231.86
2022-12-01T18:27:01.955Z,100230.33
2022-12-01T18:29:19.586Z,100239.44
2022-12-01T18:31:34.139Z,100237.98
2022-12-01T18:33:48.103Z,100239.84
2022-12-01T18:36:01.037Z,100243.03
2022-12-01T18:38:14.534Z,100246.77
2022-12-01T18:40:27.263Z,100245.55
2022-12-01T18:42:40.141Z,100246.02
2022-12-01T18:44:53.986Z,100242.65
2022-12-01T18:47:07.547Z,100243.89
2022-12-01T18:49:20.463Z,100249.10
2022-12-01T18:51:35.107Z,100249.22
2022-12-01T18:53:48.552Z,100243.80
2022-12-01T18:56:04.526Z,100246.84
2022-12-01T18:58:17.420Z,100245.34
2022-12-01T19:00:30.471Z,100246.13
2022-12-01T19:02:43.861Z,100250.52
2022-12-01T19:04:56.788Z,100253.91
2022-12-01T19:07:09.649Z,100255.10
2022-12-01T19:09:22.888Z,100256.39
2022-12-01T19:11:36.067Z,100258.42
2022-12-01T19:13:49.525Z,100260.92
2022-12-01T19:16:08.554Z,100262.56
2022-12-01T19:18:21.586Z,100265.96
2022-12-01T19:20:35.495Z,100266.30
2022-12-01T19:22:48.493Z,100266.76
2022-12-01T19:25:01.634Z,100272.80
2022-12-01T19:27:14.774Z,100268.19
2022-12-01T19:29:27.731Z,100275.06
2022-12-01T19:31:40.827Z,100274.98
2022-12-01T19:33:54.788Z,100273.11
2022-12-01T19:36:14.933Z,100272.23
2022-12-01T19:38:28.019Z,100268.83
2022-12-01T19:40:43.114Z,100265.83
2022-12-01T19:42:55.933Z,100265.48
2022-12-01T19:45:09.427Z,100268.71
2022-12-01T19:47:23.067Z,100270.37
2022-12-01T19:49:37.062Z,100264.34
2022-12-01T19:51:50.093Z,100267.77
2022-12-01T19:54:03.306Z,100269.71
2022-12-01T19:56:16.341Z,100271.91
2022-12-01T19:58:29.242Z,100271.35
2022-12-01T20:00:42.085Z,100276.55
2022-12-01T20:02:55.387Z,100278.95
2022-12-01T20:05:08.801Z,100280.96
2022-12-01T20:07:21.455Z,100284.20
2022-12-01T20:09:34.718Z,100283.64
2022-12-01T20:11:47.459Z,100283.90
2022-12-01T20:14:00.334Z,100284.52
2022-12-01T20:16:15.628Z,100288.17
2022-12-01T20:18:28.855Z,100284.95
2022-12-01T20:20:41.573Z,100288.06
2022-12-01T20:22:54.185Z,100288.43
2022-12-01T20:25:08.450Z,100282.63
2022-12-01T20:27:21.210Z,100281.60
2022-12-01T20:29:35.697Z,100282.04
2022-12-01T20:31:49.309Z,100285.40
2022-12-01T20:34:04.502Z,100280.70
2022-12-01T20:36:17.684Z,100275.27
2022-12-01T20:38:31.961Z,100276.84
2022-12-01T20:40:44.892Z,100279.86
2022-12-01T20:42:58.116Z,100286.48
2022-12-01T20:45:12.023Z,100288.55
2022-12-01T20:47:24.430Z,100285.21
2022-12-01T20:49:38.707Z,100283.10
2022-12-01T20:51:51.716Z,100283.53
2022-12-01T20:56:39.060Z,100281.77
2022-12-01T20:58:53.818Z,100280.73
2022-12-01T21:01:09.431Z,100284.00
2022-12-01T21:03:22.519Z,100286.41
2022-12-01T21:05:35.731Z,100287.45
2022-12-01T21:07:48.453Z,100289.17
2022-12-01T21:10:01.496Z,100292.16
2022-12-01T21:12:35.045Z,100294.23
2022-12-01T21:14:51.846Z,100288.84
2022-12-01T21:17:12.446Z,100288.78
2022-12-01T21:19:32.477Z,100290.78
2022-12-01T21:21:46.813Z,100294.81
2022-12-01T21:24:15.380Z,100289.63
2022-12-01T21:26:28.858Z,100294.04
2022-12-01T21:28:44.121Z,100297.27
2022-12-01T21:31:03.077Z,100301.41
2022-12-01T21:33:29.769Z,100297.51
2022-12-01T21:35:43.274Z,100300.80
2022-12-01T21:38:01.638Z,100301.74
2022-12-01T21:40:22.084Z,100301.15
2022-12-01T21:42:38.802Z,100300.91
2022-12-01T21:44:52.273Z,100307.77
2022-12-01T21:47:16.430Z,100305.77
2022-12-01T21:49:37.406Z,100307.66
2022-12-01T21:51:53.314Z,100306.69
2022-12-01T21:54:10.201Z,100314.45
2022-12-01T21:56:27.881Z,100317.61
2022-12-01T21:58:43.065Z,100319.85
2022-12-01T22:00:56.085Z,100323.20
2022-12-01T22:03:29.194Z,100327.13
2022-12-01T22:06:01.201Z,100328.82
2022-12-01T22:08:30.976Z,100331.36
2022-12-01T22:11:04.899Z,100333.30
2022-12-01T22:13:18.909Z,100332.79
2022-12-01T22:15:42.699Z,100330.83
2022-12-01T22:17:56.070Z,100333.99
2022-12-01T22:20:24.552Z,100338.85
2022-12-01T22:22:43.074Z,100341.77
2022-12-01T22:24:59.890Z,100345.20
2022-12-01T22:27:30.811Z,100349.84
2022-12-01T22:29:47.385Z,100354.48
2022-12-01T22:32:24.948Z,100365.05
2022-12-01T22:34:37.999Z,100359.78
2022-12-01T22:36:50.653Z,100358.51
2022-12-01T22:39:04.826Z,100361.17
2022-12-01T22:41:21.467Z,100366.94
2022-12-01T22:43:40.512Z,100367.59
2022-12-01T22:46:02.404Z,100373.17
2022-12-01T22:48:29.123Z,100373.72
2022-12-01T22:50:44.329Z,100375.70
2022-12-01T22:53:02.441Z,100375.98
2022-12-01T22:55:23.141Z,100376.05
2022-12-01T22:57:43.135Z,100385.13
2022-12-01T22:59:56.402Z,100388.86
2022-12-01T23:02:21.187Z,100391.06
2022-12-01T23:04:35.790Z,100394.70
2022-12-01T23:07:00.376Z,100397.80
2022-12-01T23:09:18.367Z,100399.66
2022-12-01T23:11:32.218Z,100403.25
2022-12-01T23:13:45.133Z,100404.56
2022-12-01T23:15:58.370Z,100406.77
2022-12-01T23:18:30.725Z,100408.89
2022-12-01T23:20:46.394Z,100409.45
2022-12-01T23:23:03.501Z,100413.46
2022-12-01T23:25:22.459Z,100416.23
2022-12-01T23:27:37.850Z,100419.06
2022-12-01T23:29:50.759Z,100420.98
2022-12-01T23:32:04.027Z,100423.58
2022-12-01T23:34:21.741Z,100429.42
2022-12-01T23:36:35.718Z,100432.91
2022-12-01T23:38:50.745Z,100432.48
2022-12-01T23:41:08.560Z,100436.36
2022-12-01T23:43:26.158Z,100439.61
2022-12-01T23:45:39.713Z,100440.44
2022-12-01T23:47:53.156Z,100448.41
2022-12-01T23:50:09.963Z,100455.27
2022-12-01T23:52:25.422Z,100455.55
2022-12-01T23:54:41.672Z,100456.91
2022-12-01T23:56:58.547Z,100461.00
2022-12-01T23:59:15.537Z,100461.23
